createdAt,value
2022-10-09T00:00:48.371Z,1.70
2022-10-09T00:03:17.239Z,1.30
2022-10-09T00:05:44.820Z,1.50
2022-10-09T00:08:11.327Z,2.03
2022-10-09T00:10:44.557Z,1.60
2022-10-09T00:13:11.652Z,1.60
2022-10-09T00:15:40.408Z,1.45
2022-10-09T00:18:07.994Z,1.13
2022-10-09T00:20:42.728Z,1.95
2022-10-09T00:23:10.275Z,1.30
2022-10-09T00:25:37.836Z,1.55
2022-10-09T00:28:05.052Z,1.38
2022-10-09T00:30:32.293Z,2.40
2022-10-09T00:32:58.821Z,2.00
2022-10-09T00:35:25.441Z,1.60
2022-10-09T00:37:54.202Z,1.27
2022-10-09T00:40:21.263Z,1.77
2022-10-09T00:42:49.019Z,1.60
2022-10-09T00:45:20.902Z,1.38
2022-10-09T00:47:51.860Z,1.52
2022-10-09T00:50:45.292Z,2.22
2022-10-09T00:53:15.963Z,2.13
2022-10-09T00:55:43.280Z,1.70
2022-10-09T00:58:12.176Z,1.65
2022-10-09T01:00:39.636Z,1.45
2022-10-09T01:03:06.210Z,1.60
2022-10-09T01:06:06.849Z,1.30
2022-10-09T01:08:56.776Z,1.30
2022-10-09T01:11:33.001Z,1.67
2022-10-09T01:14:14.130Z,1.58
2022-10-09T01:16:51.944Z,1.52
2022-10-09T01:19:37.199Z,1.33
2022-10-09T01:22:12.695Z,1.77
2022-10-09T01:24:42.815Z,1.55
2022-10-09T01:27:15.849Z,1.40
2022-10-09T01:29:46.387Z,1.60
2022-10-09T01:32:17.636Z,1.90
2022-10-09T01:34:45.683Z,1.25
2022-10-09T01:37:14.770Z,1.50
2022-10-09T01:39:44.214Z,2.45
2022-10-09T01:42:13.581Z,1.42
2022-10-09T01:44:40.075Z,1.52
2022-10-09T01:47:06.772Z,1.50
2022-10-09T01:50:10.330Z,1.45
2022-10-09T01:52:50.335Z,1.70
2022-10-09T01:55:28.830Z,1.88
2022-10-09T01:57:58.334Z,1.75
2022-10-09T02:00:26.558Z,1.77
2022-10-09T02:02:54.496Z,1.38
2022-10-09T02:05:30.138Z,1.20
2022-10-09T02:07:58.355Z,1.50
2022-10-09T02:10:26.115Z,1.48
2022-10-09T02:12:58.998Z,1.48
2022-10-09T02:15:36.650Z,1.17
2022-10-09T02:18:11.293Z,1.80
2022-10-09T02:20:42.334Z,1.25
2022-10-09T02:23:11.554Z,0.82
2022-10-09T02:25:38.871Z,1.30
2022-10-09T02:28:07.563Z,1.23
2022-10-09T02:30:53.591Z,1.65
2022-10-09T02:33:27.203Z,1.58
2022-10-09T02:35:53.842Z,1.00
2022-10-09T02:38:20.373Z,0.98
2022-10-09T02:40:46.911Z,1.92
2022-10-09T02:43:13.409Z,1.10
2022-10-09T02:45:39.900Z,1.20
2022-10-09T02:48:06.480Z,1.02
2022-10-09T02:50:33.006Z,1.20
2022-10-09T02:52:59.479Z,1.10
2022-10-09T02:55:25.971Z,1.70
2022-10-09T02:57:52.569Z,1.35
2022-10-09T03:00:19.287Z,1.20
2022-10-09T03:02:45.864Z,1.23
2022-10-09T03:05:12.493Z,1.38
2022-10-09T03:07:39.021Z,1.00
2022-10-09T03:10:06.014Z,2.35
2022-10-09T03:12:32.474Z,1.27
2022-10-09T03:14:58.992Z,1.48
2022-10-09T03:17:25.497Z,1.65
2022-10-09T03:19:52.032Z,1.70
2022-10-09T03:22:18.534Z,1.70
2022-10-09T03:24:44.994Z,1.40
2022-10-09T03:27:11.667Z,1.38
2022-10-09T03:29:38.148Z,2.22
2022-10-09T03:32:04.715Z,1.55
2022-10-09T03:34:31.219Z,1.50
2022-10-09T03:36:57.686Z,1.50
2022-10-09T03:39:24.171Z,1.67
2022-10-09T03:41:50.691Z,1.33
2022-10-09T03:44:17.283Z,1.25
2022-10-09T03:46:43.884Z,2.00
2022-10-09T03:49:10.447Z,2.25
2022-10-09T03:51:37.099Z,2.30
2022-10-09T03:54:03.754Z,1.95
2022-10-09T03:56:30.375Z,1.80
2022-10-09T03:58:56.821Z,2.47
2022-10-09T04:01:23.365Z,1.77
2022-10-09T04:03:49.864Z,1.95
2022-10-09T04:06:16.359Z,1.63
2022-10-09T04:08:42.857Z,2.00
2022-10-09T04:11:09.333Z,2.22
2022-10-09T04:13:36.425Z,1.70
2022-10-09T04:16:03.116Z,2.63
2022-10-09T04:18:30.544Z,1.50
2022-10-09T04:20:57.566Z,1.73
2022-10-09T04:23:26.673Z,3.05
2022-10-09T04:25:58.467Z,1.90
2022-10-09T04:28:26.047Z,1.45
2022-10-09T04:30:52.903Z,1.98
2022-10-09T04:33:20.010Z,1.77
2022-10-09T04:35:51.684Z,1.75
2022-10-09T04:38:19.171Z,1.77
2022-10-09T04:40:55.652Z,1.83
2022-10-09T04:43:22.151Z,1.63
2022-10-09T04:45:48.698Z,1.90
2022-10-09T04:48:15.257Z,1.90
2022-10-09T04:50:41.743Z,2.15
2022-10-09T04:53:09.471Z,2.13
2022-10-09T04:55:43.512Z,2.08
2022-10-09T04:58:11.989Z,2.85
2022-10-09T05:00:43.702Z,2.05
2022-10-09T05:03:11.113Z,2.63
2022-10-09T05:05:37.982Z,2.03
2022-10-09T05:08:04.982Z,2.45
2022-10-09T05:10:32.415Z,2.53
2022-10-09T05:12:59.906Z,2.42
2022-10-09T05:15:27.119Z,2.05
2022-10-09T05:17:53.669Z,3.13
2022-10-09T05:20:20.211Z,2.13
2022-10-09T05:22:47.924Z,1.92
2022-10-09T05:25:15.270Z,2.47
2022-10-09T05:27:41.893Z,2.58
2022-10-09T05:30:09.177Z,2.75
2022-10-09T05:32:35.774Z,2.42
2022-10-09T05:35:02.224Z,2.78
2022-10-09T05:37:28.671Z,4.05
2022-10-09T05:39:55.180Z,2.40
2022-10-09T05:42:21.696Z,2.63
2022-10-09T05:44:48.146Z,3.78
2022-10-09T05:47:17.872Z,2.55
2022-10-09T05:49:44.380Z,2.40
2022-10-09T05:52:10.897Z,2.80
2022-10-09T05:54:37.358Z,2.47
2022-10-09T05:57:04.948Z,2.65
2022-10-09T05:59:31.533Z,2.53
2022-10-09T06:01:59.140Z,2.53
2022-10-09T06:04:26.091Z,2.20
2022-10-09T06:06:52.881Z,2.33
2022-10-09T06:09:23.134Z,2.75
2022-10-09T06:11:50.992Z,1.92
2022-10-09T06:14:17.955Z,2.40
2022-10-09T06:16:45.548Z,1.83
2022-10-09T06:19:14.159Z,2.45
2022-10-09T06:21:41.279Z,2.45
2022-10-09T06:24:08.694Z,2.22
2022-10-09T06:26:35.274Z,2.85
2022-10-09T06:29:02.945Z,2.40
2022-10-09T06:31:31.756Z,2.38
2022-10-09T06:34:00.434Z,2.95
2022-10-09T06:36:29.472Z,2.42
2022-10-09T06:38:56.521Z,2.88
2022-10-09T06:41:25.250Z,2.03
2022-10-09T06:43:52.874Z,3.58
2022-10-09T06:46:21.092Z,3.47
2022-10-09T06:48:47.709Z,3.22
2022-10-09T06:51:16.562Z,2.88
2022-10-09T06:53:45.913Z,3.00
2022-10-09T06:56:16.513Z,3.05
2022-10-09T06:58:43.432Z,2.55
2022-10-09T07:01:13.516Z,3.45
2022-10-09T07:03:42.101Z,3.25
2022-10-09T07:06:13.351Z,3.33
2022-10-09T07:08:42.039Z,5.60
2022-10-09T07:11:17.862Z,3.08
2022-10-09T07:13:44.652Z,3.63
2022-10-09T07:16:11.506Z,3.03
2022-10-09T07:18:38.898Z,2.85
2022-10-09T07:21:08.195Z,3.50
2022-10-09T07:23:36.145Z,3.40
2022-10-09T07:26:18.498Z,3.30
2022-10-09T07:28:46.192Z,3.88
2022-10-09T07:31:14.394Z,2.30
2022-10-09T07:33:41.730Z,2.67
2022-10-09T07:36:09.785Z,2.80
2022-10-09T07:38:36.829Z,3.38
2022-10-09T07:41:07.187Z,3.45
2022-10-09T07:43:38.136Z,4.82
2022-10-09T07:46:07.638Z,2.50
2022-10-09T07:48:35.321Z,2.50
2022-10-09T07:51:15.228Z,3.33
2022-10-09T07:53:42.052Z,2.95
2022-10-09T07:56:17.680Z,2.58
2022-10-09T07:58:49.752Z,2.10
2022-10-09T08:01:20.130Z,2.67
2022-10-09T08:03:47.514Z,3.72
2022-10-09T08:06:14.633Z,3.33
2022-10-09T08:08:42.602Z,2.30
2022-10-09T08:11:15.300Z,2.35
2022-10-09T08:13:43.076Z,2.30
2022-10-09T08:16:09.940Z,3.38
2022-10-09T08:18:36.983Z,2.95
2022-10-09T08:21:11.029Z,1.88
2022-10-09T08:23:37.561Z,2.55
2022-10-09T08:26:05.252Z,2.65
2022-10-09T08:28:31.813Z,2.60
2022-10-09T08:30:58.443Z,2.30
2022-10-09T08:33:26.035Z,2.15
2022-10-09T08:35:53.272Z,1.95
2022-10-09T08:38:44.754Z,2.22
2022-10-09T08:41:11.399Z,1.90
2022-10-09T08:43:42.393Z,1.88
2022-10-09T08:46:26.208Z,2.45
2022-10-09T08:48:55.424Z,1.75
2022-10-09T08:51:28.425Z,2.17
2022-10-09T08:53:54.845Z,2.15
2022-10-09T08:56:22.965Z,2.60
2022-10-09T08:58:49.466Z,2.90
2022-10-09T09:01:30.249Z,2.45
2022-10-09T09:04:18.899Z,2.65
2022-10-09T09:06:54.172Z,2.30
2022-10-09T09:09:30.808Z,2.38
2022-10-09T09:12:09.803Z,2.40
2022-10-09T09:15:05.465Z,1.88
2022-10-09T09:17:45.135Z,2.00
2022-10-09T09:20:17.797Z,2.28
2022-10-09T09:22:49.543Z,2.58
2022-10-09T09:25:25.473Z,1.52
2022-10-09T09:28:00.325Z,2.47
2022-10-09T09:30:36.105Z,2.40
2022-10-09T09:33:18.837Z,1.88
2022-10-09T09:36:07.778Z,1.25
2022-10-09T09:38:34.827Z,1.65
2022-10-09T09:41:01.909Z,2.20
2022-10-09T09:43:28.518Z,1.65
2022-10-09T09:45:57.325Z,1.83
2022-10-09T09:48:37.417Z,1.70
2022-10-09T09:51:27.268Z,1.50
2022-10-09T09:54:04.068Z,2.75
2022-10-09T09:56:59.836Z,1.52
2022-10-09T09:59:36.169Z,1.42
2022-10-09T10:02:12.715Z,3.13
2022-10-09T10:04:57.455Z,2.13
2022-10-09T10:07:32.970Z,1.90
2022-10-09T10:10:27.327Z,1.48
2022-10-09T10:12:55.312Z,1.42
2022-10-09T10:15:33.897Z,1.25
2022-10-09T10:18:07.489Z,1.48
2022-10-09T10:20:44.488Z,1.83
2022-10-09T10:23:48.787Z,2.03
2022-10-09T10:26:50.948Z,1.10
2022-10-09T10:29:23.630Z,2.28
2022-10-09T10:32:01.072Z,1.40
2022-10-09T10:34:40.522Z,1.48
2022-10-09T10:37:46.783Z,1.52
2022-10-09T10:40:16.191Z,2.78
2022-10-09T10:42:58.696Z,1.90
2022-10-09T10:45:54.929Z,1.55
2022-10-09T10:48:31.587Z,1.38
2022-10-09T10:51:22.316Z,2.20
2022-10-09T10:54:19.153Z,3.03
2022-10-09T10:56:51.233Z,1.58
2022-10-09T10:59:39.726Z,1.10
2022-10-09T11:02:21.512Z,1.98
2022-10-09T11:05:02.712Z,1.45
2022-10-09T11:07:40.065Z,1.40
2022-10-09T11:10:31.737Z,1.52
2022-10-09T11:13:06.663Z,2.60
2022-10-09T11:18:23.880Z,2.60
2022-10-09T11:21:02.546Z,1.83
2022-10-09T11:23:38.494Z,2.05
2022-10-09T11:26:29.112Z,1.20
2022-10-09T11:29:08.393Z,2.83
2022-10-09T11:31:45.130Z,1.02
2022-10-09T11:34:22.673Z,1.70
2022-10-09T11:36:49.242Z,1.30
2022-10-09T11:39:22.338Z,1.33
2022-10-09T11:41:52.236Z,2.53
2022-10-09T11:44:35.776Z,1.52
2022-10-09T11:47:20.008Z,2.33
2022-10-09T11:49:52.621Z,1.50
2022-10-09T11:52:53.347Z,1.30
2022-10-09T11:55:23.254Z,1.52
2022-10-09T11:57:49.921Z,1.60
2022-10-09T12:00:28.756Z,1.40
2022-10-09T12:02:59.868Z,1.80
2022-10-09T12:05:44.721Z,1.73
2022-10-09T12:08:24.635Z,1.80
2022-10-09T12:10:55.381Z,1.15
2022-10-09T12:13:39.285Z,1.52
2022-10-09T12:16:08.151Z,2.47
2022-10-09T12:18:38.656Z,1.73
2022-10-09T12:21:08.569Z,1.60
2022-10-09T12:23:39.477Z,1.30
2022-10-09T12:26:10.760Z,2.92
2022-10-09T12:28:48.445Z,1.88
2022-10-09T12:31:31.969Z,1.45
2022-10-09T12:34:11.786Z,1.17
2022-10-09T12:36:38.311Z,1.40
2022-10-09T12:39:24.800Z,1.85
2022-10-09T12:41:54.930Z,2.10
2022-10-09T12:44:34.665Z,1.67
2022-10-09T12:47:06.402Z,1.40
2022-10-09T12:49:33.135Z,1.38
2022-10-09T12:52:00.476Z,1.20
2022-10-09T12:54:29.882Z,1.08
2022-10-09T12:56:57.903Z,1.40
2022-10-09T12:59:27.411Z,1.35
2022-10-09T13:01:57.965Z,1.20
2022-10-09T13:04:28.772Z,0.82
2022-10-09T13:06:56.814Z,2.13
2022-10-09T13:09:28.635Z,1.52
2022-10-09T13:12:00.724Z,1.77
2022-10-09T13:14:41.391Z,0.95
2022-10-09T13:17:23.873Z,0.80
2022-10-09T13:19:53.215Z,1.10
2022-10-09T13:22:21.996Z,1.38
2022-10-09T13:24:53.507Z,1.27
2022-10-09T13:27:28.467Z,0.90
2022-10-09T13:32:24.257Z,1.50
2022-10-09T13:34:54.938Z,0.80
2022-10-09T13:37:23.595Z,1.10
2022-10-09T13:39:54.661Z,1.42
2022-10-09T13:42:22.787Z,0.90
2022-10-09T13:44:49.391Z,1.10
2022-10-09T13:47:18.574Z,1.10
2022-10-09T13:49:47.788Z,0.90
2022-10-09T13:52:14.318Z,0.80
2022-10-09T13:54:41.093Z,1.38
2022-10-09T13:57:08.286Z,1.10
2022-10-09T13:59:34.809Z,0.98
2022-10-09T14:02:01.538Z,1.33
2022-10-09T14:04:29.419Z,0.80
2022-10-09T14:06:56.619Z,0.70
2022-10-09T14:09:24.194Z,0.90
2022-10-09T14:11:50.777Z,1.88
2022-10-09T14:14:17.308Z,1.40
2022-10-09T14:16:43.865Z,1.23
2022-10-09T14:19:11.508Z,1.25
2022-10-09T14:21:38.149Z,1.40
2022-10-09T14:24:05.161Z,1.00
2022-10-09T14:26:33.984Z,1.00
2022-10-09T14:29:01.786Z,1.67
2022-10-09T14:31:29.227Z,1.40
2022-10-09T14:33:58.215Z,2.15
2022-10-09T14:36:25.333Z,1.33
2022-10-09T14:38:52.199Z,2.00
2022-10-09T14:41:19.904Z,1.65
2022-10-09T14:43:47.458Z,1.20
2022-10-09T14:46:17.144Z,1.50
2022-10-09T14:48:45.984Z,1.77
2022-10-09T14:51:18.642Z,1.27
2022-10-09T14:53:45.907Z,1.35
2022-10-09T14:56:15.598Z,1.33
2022-10-09T14:58:42.413Z,1.55
2022-10-09T15:01:12.888Z,1.83
2022-10-09T15:03:39.540Z,1.40
2022-10-09T15:06:08.249Z,1.63
2022-10-09T15:08:37.102Z,1.08
2022-10-09T15:11:04.529Z,1.20
2022-10-09T15:13:33.591Z,1.23
2022-10-09T15:16:02.127Z,1.20
2022-10-09T15:18:29.180Z,1.13
2022-10-09T15:20:56.479Z,1.20
2022-10-09T15:23:22.947Z,1.38
2022-10-09T15:25:55.112Z,1.42
2022-10-09T15:28:21.813Z,1.55
2022-10-09T15:30:57.845Z,1.30
2022-10-09T15:33:24.964Z,1.67
2022-10-09T15:35:53.079Z,1.80
2022-10-09T15:38:22.632Z,1.08
2022-10-09T15:40:51.785Z,1.23
2022-10-09T15:43:21.028Z,1.73
2022-10-09T15:45:47.977Z,1.40
2022-10-09T15:48:16.912Z,1.60
2022-10-09T15:50:46.515Z,2.33
2022-10-09T15:53:14.961Z,1.30
2022-10-09T15:55:46.653Z,1.30
2022-10-09T15:58:14.394Z,1.33
2022-10-09T16:00:44.692Z,1.60
2022-10-09T16:03:11.277Z,1.25
2022-10-09T16:05:47.032Z,0.80
2022-10-09T16:08:14.136Z,1.58
2022-10-09T16:10:48.864Z,1.48
2022-10-09T16:13:16.005Z,0.82
2022-10-09T16:15:43.466Z,1.10
2022-10-09T16:18:11.112Z,1.33
2022-10-09T16:20:38.904Z,1.33
2022-10-09T16:23:07.322Z,1.50
2022-10-09T16:25:34.148Z,1.30
2022-10-09T16:28:00.917Z,1.33
2022-10-09T16:30:28.430Z,1.02
2022-10-09T16:32:55.041Z,1.20
2022-10-09T16:35:22.513Z,1.35
2022-10-09T16:37:52.400Z,1.30
2022-10-09T16:40:21.037Z,1.00
2022-10-09T16:42:52.262Z,1.20
2022-10-09T16:45:18.891Z,2.05
2022-10-09T16:47:45.637Z,0.90
2022-10-09T16:50:12.326Z,0.90
2022-10-09T16:52:38.810Z,1.40
2022-10-09T16:55:05.907Z,1.15
2022-10-09T16:57:32.348Z,1.13
2022-10-09T16:59:59.127Z,1.15
2022-10-09T17:02:25.816Z,1.08
2022-10-09T17:04:52.275Z,1.40
2022-10-09T17:07:19.617Z,1.73
2022-10-09T17:09:46.647Z,1.33
2022-10-09T17:12:13.162Z,1.00
2022-10-09T17:14:40.778Z,1.23
2022-10-09T17:17:10.371Z,1.17
2022-10-09T17:19:37.568Z,1.00
2022-10-09T17:22:05.043Z,1.25
2022-10-09T17:24:32.769Z,1.08
2022-10-09T17:26:59.423Z,1.58
2022-10-09T17:29:26.003Z,1.33
2022-10-09T17:31:52.457Z,1.13
2022-10-09T17:34:18.972Z,1.60
2022-10-09T17:36:45.795Z,1.85
2022-10-09T17:39:15.458Z,1.50
2022-10-09T17:41:45.553Z,1.20
2022-10-09T17:44:12.582Z,1.15
2022-10-09T17:46:39.693Z,1.55
2022-10-09T17:49:06.267Z,1.00
2022-10-09T17:51:38.944Z,1.45
2022-10-09T17:54:11.745Z,2.55
2022-10-09T17:56:38.909Z,1.30
2022-10-09T17:59:05.544Z,1.50
2022-10-09T18:01:32.360Z,1.17
2022-10-09T18:03:58.959Z,1.67
2022-10-09T18:06:26.354Z,1.20
2022-10-09T18:08:55.537Z,1.55
2022-10-09T18:11:23.649Z,1.48
2022-10-09T18:13:50.213Z,1.20
2022-10-09T18:16:22.425Z,1.10
2022-10-09T18:18:49.292Z,2.53
2022-10-09T18:21:17.011Z,1.00
2022-10-09T18:23:45.851Z,1.83
2022-10-09T18:26:15.613Z,1.33
2022-10-09T18:28:44.749Z,1.50
2022-10-09T18:31:18.658Z,1.60
2022-10-09T18:33:45.309Z,1.40
2022-10-09T18:36:22.917Z,2.30
2022-10-09T18:38:53.588Z,1.83
2022-10-09T18:41:21.632Z,1.60
2022-10-09T18:43:48.811Z,1.40
2022-10-09T18:46:18.245Z,1.35
2022-10-09T18:48:45.051Z,1.40
2022-10-09T18:51:17.266Z,3.95
2022-10-09T18:53:47.576Z,1.50
2022-10-09T18:56:16.248Z,2.03
2022-10-09T18:58:42.910Z,1.70
2022-10-09T19:01:09.511Z,1.63
2022-10-09T19:03:36.737Z,1.20
2022-10-09T19:06:04.306Z,1.23
2022-10-09T19:08:30.939Z,1.75
2022-10-09T19:10:57.472Z,1.42
2022-10-09T19:13:25.093Z,1.50
2022-10-09T19:15:53.709Z,1.20
2022-10-09T19:18:21.310Z,1.50
2022-10-09T19:20:48.254Z,1.50
2022-10-09T19:23:15.256Z,1.20
2022-10-09T19:25:50.706Z,1.70
2022-10-09T19:28:18.257Z,1.90
2022-10-09T19:30:45.846Z,2.17
2022-10-09T19:33:12.320Z,2.08
2022-10-09T19:35:49.480Z,1.38
2022-10-09T19:38:16.876Z,1.50
2022-10-09T19:40:44.609Z,2.05
2022-10-09T19:43:12.936Z,2.30
2022-10-09T19:45:39.782Z,2.13
2022-10-09T19:48:06.612Z,2.83
2022-10-09T19:50:33.515Z,2.15
2022-10-09T19:53:03.162Z,2.03
2022-10-09T19:55:33.243Z,1.95
2022-10-09T19:57:59.928Z,1.63
2022-10-09T20:00:26.823Z,2.33
2022-10-09T20:02:53.557Z,1.55
2022-10-09T20:05:20.256Z,1.60
2022-10-09T20:07:46.745Z,1.63
2022-10-09T20:10:13.242Z,1.38
2022-10-09T20:12:39.869Z,1.70
2022-10-09T20:15:07.142Z,1.63
2022-10-09T20:17:33.635Z,1.70
2022-10-09T20:20:02.595Z,1.45
2022-10-09T20:22:29.117Z,1.98
2022-10-09T20:24:55.605Z,1.90
2022-10-09T20:27:22.120Z,1.60
2022-10-09T20:29:48.675Z,1.55
2022-10-09T20:32:15.653Z,2.30
2022-10-09T20:34:42.307Z,2.15
2022-10-09T20:37:08.814Z,1.25
2022-10-09T20:39:35.366Z,1.50
2022-10-09T20:42:01.980Z,1.67
2022-10-09T20:44:28.449Z,1.80
2022-10-09T20:46:56.792Z,1.52
2022-10-09T20:49:23.701Z,1.40
2022-10-09T20:51:51.246Z,1.20
2022-10-09T20:54:19.767Z,1.33
2022-10-09T20:56:46.522Z,2.13
2022-10-09T20:59:13.806Z,1.60
2022-10-09T21:01:42.829Z,1.50
2022-10-09T21:04:11.138Z,1.50
2022-10-09T21:06:38.103Z,1.63
2022-10-09T21:09:04.832Z,1.90
2022-10-09T21:11:34.872Z,1.90
2022-10-09T21:14:02.997Z,1.63
2022-10-09T21:16:29.925Z,1.88
2022-10-09T21:18:59.112Z,2.78
2022-10-09T21:21:26.800Z,1.48
2022-10-09T21:23:55.976Z,1.30
2022-10-09T21:26:23.905Z,1.75
2022-10-09T21:28:52.432Z,1.60
2022-10-09T21:31:26.189Z,1.48
2022-10-09T21:33:52.714Z,1.83
2022-10-09T21:36:33.251Z,2.30
2022-10-09T21:38:59.919Z,2.22
2022-10-09T21:41:27.204Z,1.73
2022-10-09T21:43:53.861Z,2.15
2022-10-09T21:46:20.495Z,2.20
2022-10-09T21:48:46.990Z,1.83
2022-10-09T21:51:13.499Z,2.08
2022-10-09T21:53:40.029Z,1.88
2022-10-09T21:56:06.936Z,2.00
2022-10-09T21:58:33.554Z,1.73
2022-10-09T22:01:01.992Z,2.72
2022-10-09T22:03:30.377Z,2.08
2022-10-09T22:05:57.360Z,1.85
2022-10-09T22:08:24.489Z,2.10
2022-10-09T22:10:51.356Z,2.22
2022-10-09T22:13:19.725Z,2.70
2022-10-09T22:15:50.770Z,2.13
2022-10-09T22:18:18.699Z,2.33
2022-10-09T22:20:47.663Z,2.25
2022-10-09T22:23:14.757Z,2.17
2022-10-09T22:25:41.290Z,2.47
2022-10-09T22:28:07.893Z,2.50
2022-10-09T22:30:34.523Z,3.05
2022-10-09T22:33:01.047Z,2.60
2022-10-09T22:35:28.211Z,2.42
2022-10-09T22:37:54.704Z,2.33
2022-10-09T22:40:21.222Z,2.25
2022-10-09T22:42:47.937Z,2.80
2022-10-09T22:45:14.918Z,3.13
2022-10-09T22:47:41.359Z,3.05
2022-10-09T22:50:08.428Z,2.72
2022-10-09T22:52:35.008Z,2.55
2022-10-09T22:55:01.693Z,2.45
2022-10-09T22:57:28.244Z,2.63
2022-10-09T22:59:54.729Z,3.38
2022-10-09T23:02:21.224Z,2.50
2022-10-09T23:04:47.785Z,2.72
2022-10-09T23:07:14.259Z,2.80
2022-10-09T23:09:41.392Z,2.40
2022-10-09T23:12:08.072Z,3.08
2022-10-09T23:14:34.531Z,2.53
2022-10-09T23:17:00.984Z,3.17
2022-10-09T23:19:27.553Z,2.88
2022-10-09T23:21:54.018Z,3.00
2022-10-09T23:24:20.674Z,3.47
2022-10-09T23:26:50.714Z,4.75
2022-10-09T23:29:18.813Z,2.63
2022-10-09T23:31:46.619Z,2.75
2022-10-09T23:34:13.418Z,3.20
2022-10-09T23:36:40.042Z,3.03
2022-10-09T23:39:07.360Z,2.47
2022-10-09T23:41:34.138Z,2.78
2022-10-09T23:44:00.699Z,3.20
2022-10-09T23:46:29.392Z,3.50
2022-10-09T23:48:56.585Z,2.25
2022-10-09T23:51:25.412Z,2.70
2022-10-09T23:53:52.156Z,2.90
2022-10-09T23:56:23.273Z,3.28
2022-10-09T23:58:50.203Z,2.83
